| time (UTC) | temp C | wind direction | speed KPH | gust KPH | rain 1hr cm | rain 24hr cm | rain mn cm | humidity % | barometer mb |
| 20260507143018 | 18 | 113 | 0.0 | 1.6 | 0.00 | 0.00 | 0.00 | 74 | 1014.4 |
| 20260507141505 | 18 | 117 | 1.6 | 9.7 | 0.00 | 0.00 | 0.00 | 73 | 1014.5 |
| 20260507140008 | 18 | 166 | 3.2 | 9.7 | 0.00 | 0.00 | 0.00 | 73 | 1014.5 |
| 20260507134510 | 19 | 118 | 3.2 | 9.7 | 0.00 | 0.00 | 0.00 | 73 | 1014.6 |
| 20260507133010 | 19 | 125 | 1.6 | 4.8 | 0.00 | 0.00 | 0.00 | 74 | 1014.9 |
| 20260507131513 | 19 | 102 | 0.0 | 11.3 | 0.00 | 0.00 | 0.00 | 73 | 1015.1 |
| 20260507130005 | 20 | 124 | 3.2 | 9.7 | 0.00 | 0.00 | 0.00 | 70 | 1014.9 |
| 20260507124507 | 20 | 148 | 4.8 | 9.7 | 0.00 | 0.00 | 0.00 | 71 | 1014.9 |
| 20260507123013 | 20 | 125 | 4.8 | 11.3 | 0.00 | 0.00 | 0.00 | 71 | 1014.7 |
| 20260507121516 | 19 | 97 | 4.8 | 11.3 | 0.00 | 0.00 | 0.00 | 70 | 1014.6 |
| 20260507120010 | 19 | 122 | 0.0 | 8.0 | 0.00 | 0.00 | 0.00 | 70 | 1014.5 |
| 20260507114506 | 20 | 113 | 1.6 | 9.7 | 0.00 | 0.00 | 0.00 | 70 | 1014.6 |
| 20260507113019 | 20 | 126 | 1.6 | 9.7 | 0.00 | 0.00 | 0.00 | 70 | 1014.8 |
| 20260507111533 | 20 | 109 | 3.2 | 9.7 | 0.00 | 0.00 | 0.00 | 71 | 1014.9 |
| 20260507110025 | 19 | 107 | 3.2 | 11.3 | 0.00 | 0.00 | 0.00 | 72 | 1014.9 |
| 20260507104518 | 20 | 126 | 3.2 | 9.7 | 0.00 | 0.00 | 0.00 | 70 | 1014.9 |
| 20260507103013 | 20 | 121 | 3.2 | 9.7 | 0.00 | 0.00 | 0.00 | 70 | 1014.9 |
| 20260507101512 | 20 | 121 | 3.2 | 9.7 | 0.00 | 0.00 | 0.00 | 71 | 1015.0 |
| 20260507100010 | 20 | 120 | 4.8 | 9.7 | 0.00 | 0.00 | 0.00 | 70 | 1015.0 |
| 20260507094505 | 20 | 80 | 3.2 | 11.3 | 0.00 | 0.00 | 0.00 | 70 | 1014.9 |
| 20260507093006 | 20 | 98 | 3.2 | 11.3 | 0.00 | 0.00 | 0.00 | 68 | 1014.6 |
| 20260507091510 | 20 | 113 | 4.8 | 6.4 | 0.00 | 0.00 | 0.00 | 69 | 1014.6 |
| 20260507090013 | 19 | 115 | 3.2 | 6.4 | 0.00 | 0.00 | 0.00 | 69 | 1014.4 |
| 20260507084514 | 19 | 117 | 3.2 | 6.4 | 0.00 | 0.00 | 0.00 | 70 | 1014.4 |
| 20260507083013 | 19 | 118 | 3.2 | 4.8 | 0.00 | 0.00 | 0.00 | 69 | 1014.1 |
| 20260507081508 | 18 | 94 | 3.2 | 9.7 | 0.00 | 0.00 | 0.00 | 70 | 1014.1 |
| 20260507080013 | 18 | 124 | 0.0 | 6.4 | 0.00 | 0.00 | 0.00 | 71 | 1014.1 |
| 20260507074516 | 18 | 123 | 1.6 | 9.7 | 0.00 | 0.00 | 0.00 | 72 | 1014.1 |
| 20260507073031 | 18 | 128 | 3.2 | 6.4 | 0.00 | 0.00 | 0.00 | 73 | 1013.9 |
| 20260507071521 | 17 | 119 | 3.2 | 6.4 | 0.00 | 0.00 | 0.00 | 74 | 1013.8 |
| 20260507070012 | 17 | 129 | 0.0 | 6.4 | 0.00 | 0.00 | 0.00 | 75 | 1013.8 |
| 20260507064522 | 17 | 115 | 3.2 | 9.7 | 0.00 | 0.00 | 0.00 | 75 | 1013.7 |
| 20260507063024 | 17 | 121 | 4.8 | 11.3 | 0.00 | 0.00 | 0.00 | 76 | 1013.4 |
| 20260507061526 | 17 | 120 | 3.2 | 6.4 | 0.00 | 0.00 | 0.00 | 76 | 1013.3 |
| 20260507060028 | 16 | 100 | 0.0 | 4.8 | 0.00 | 0.00 | 0.00 | 79 | 1013.3 |
| 20260507054526 | 15 | 246 | 0.0 | 4.8 | 0.00 | 0.00 | 0.00 | 82 | 1013.2 |
| 20260507053020 | 15 | 245 | 0.0 | 4.8 | 0.00 | 0.00 | 0.00 | 85 | 1013.0 |
| 20260507051520 | 14 | 245 | 1.6 | 6.4 | 0.00 | 0.00 | 0.00 | 86 | 1012.7 |
| 20260507050033 | 13 | 238 | 1.6 | 9.7 | 0.00 | 0.00 | 0.00 | 89 | 1012.6 |
| 20260507044535 | 13 | 257 | 1.6 | 4.8 | 0.00 | 0.00 | 0.00 | 89 | 1012.6 |
| 20260507043028 | 13 | 257 | 1.6 | 4.8 | 0.00 | 0.05 | 0.00 | 89 | 1012.4 |
| 20260507041528 | 13 | 257 | 3.2 | 6.4 | 0.00 | 0.18 | 0.00 | 89 | 1012.4 |
| 20260507040005 | 13 | 257 | 1.6 | 6.4 | 0.00 | 0.23 | 0.00 | 89 | 1012.4 |
| 20260507034504 | 13 | 257 | 3.2 | 6.4 | 0.00 | 0.23 | 0.00 | 89 | 1012.2 |
| 20260507033004 | 13 | 257 | 3.2 | 6.4 | 0.00 | 0.23 | 0.00 | 89 | 1012.1 |
| 20260507031503 | 13 | 242 | 3.2 | 8.0 | 0.00 | 0.23 | 0.00 | 89 | 1012.1 |
| 20260507030004 | 12 | 242 | 3.2 | 6.4 | 0.00 | 0.23 | 0.00 | 89 | 1012.1 |
| 20260507024504 | 12 | 242 | 3.2 | 6.4 | 0.00 | 0.25 | 0.00 | 89 | 1012.0 |
| 20260507023004 | 12 | 242 | 3.2 | 6.4 | 0.00 | 0.25 | 0.00 | 89 | 1012.0 |
| 20260507021503 | 12 | 242 | 3.2 | 6.4 | 0.00 | 0.25 | 0.00 | 89 | 1012.0 |
| 20260507020005 | 12 | 242 | 3.2 | 6.4 | 0.00 | 0.25 | 0.00 | 89 | 1011.9 |
| 20260507014506 | 12 | 242 | 3.2 | 6.4 | 0.00 | 0.25 | 0.00 | 88 | 1011.8 |
| 20260507013004 | 13 | 242 | 3.2 | 6.4 | 0.00 | 0.25 | 0.00 | 88 | 1011.7 |
| 20260507011516 | 13 | 242 | 3.2 | 6.4 | 0.00 | 0.25 | 0.00 | 88 | 1011.7 |
| 20260507010004 | 13 | 242 | 3.2 | 6.4 | 0.00 | 0.25 | 0.00 | 89 | 1011.7 |
| 20260507004523 | 13 | 242 | 3.2 | 6.4 | 0.00 | 0.25 | 0.00 | 89 | 1011.8 |
| 20260507003004 | 13 | 242 | 3.2 | 6.4 | 0.00 | 0.25 | 0.00 | 89 | 1011.8 |
| 20260507001508 | 13 | 242 | 4.8 | 6.4 | 0.00 | 0.25 | 0.00 | 89 | 1011.6 |
| 20260507000014 | 13 | 242 | 1.6 | 6.4 | 0.00 | 0.28 | 0.00 | 88 | 1011.6 |
| 20260506234509 | 13 | 242 | 1.6 | 6.4 | 0.00 | 0.28 | 0.00 | 88 | 1011.7 |
| 20260506233012 | 13 | 242 | 1.6 | 4.8 | 0.00 | 0.30 | 0.00 | 88 | 1011.7 |
| 20260506231517 | 13 | 242 | 1.6 | 6.4 | 0.00 | 0.33 | 0.00 | 88 | 1011.7 |
| 20260506230013 | 13 | 242 | 3.2 | 4.8 | 0.00 | 0.36 | 0.00 | 87 | 1011.7 |
| 20260506224512 | 13 | 242 | 3.2 | 4.8 | 0.00 | 0.36 | 0.00 | 87 | 1011.7 |
| 20260506223014 | 14 | 242 | 1.6 | 6.4 | 0.00 | 0.36 | 0.00 | 87 | 1011.7 |
| 20260506221512 | 14 | 242 | 3.2 | 8.0 | 0.00 | 0.36 | 0.00 | 87 | 1011.7 |
| 20260506220012 | 14 | 242 | 3.2 | 6.4 | 0.00 | 0.36 | 0.00 | 86 | 1011.6 |
| 20260506214511 | 14 | 245 | 3.2 | 6.4 | 0.00 | 0.36 | 0.36 | 86 | 1011.5 |
| 20260506213010 | 15 | 259 | 3.2 | 6.4 | 0.00 | 0.36 | 0.36 | 84 | 1011.7 |
| 20260506211516 | 15 | 259 | 0.0 | 1.6 | 0.00 | 0.36 | 0.36 | 82 | 1011.5 |
| 20260506210016 | 16 | 259 | 0.0 | 0.0 | 0.00 | 0.36 | 0.36 | 79 | 1011.4 |
| 20260506204516 | 16 | 130 | 1.6 | 12.9 | 0.00 | 0.36 | 0.36 | 79 | 1011.3 |
| 20260506203022 | 16 | 70 | 8.0 | 17.7 | 0.00 | 0.36 | 0.36 | 79 | 1011.3 |
| 20260506201529 | 17 | 314 | 0.0 | 4.8 | 0.00 | 0.36 | 0.36 | 78 | 1011.1 |
| 20260506200015 | 17 | 90 | 0.0 | 4.8 | 0.00 | 0.36 | 0.36 | 78 | 1010.9 |
| 20260506194521 | 17 | 287 | 0.0 | 9.7 | 0.00 | 0.36 | 0.36 | 78 | 1010.6 |
| 20260506193021 | 17 | 112 | 1.6 | 16.1 | 0.00 | 0.36 | 0.36 | 77 | 1010.2 |
| 20260506191516 | 17 | 113 | 0.0 | 4.8 | 0.00 | 0.36 | 0.36 | 76 | 1010.1 |
| 20260506190022 | 17 | 135 | 0.0 | 3.2 | 0.00 | 0.36 | 0.36 | 75 | 1009.7 |
| 20260506184521 | 17 | 276 | 1.6 | 9.7 | 0.00 | 0.36 | 0.36 | 74 | 1009.5 |
| 20260506183027 | 17 | 293 | 1.6 | 8.0 | 0.00 | 0.36 | 0.36 | 73 | 1009.3 |
| 20260506181520 | 17 | 311 | 6.4 | 14.5 | 0.00 | 0.36 | 0.36 | 73 | 1009.3 |
| 20260506180008 | 17 | 143 | 1.6 | 22.5 | 0.00 | 0.36 | 0.36 | 73 | 1009.0 |
| 20260506174508 | 17 | 118 | 0.0 | 20.9 | 0.00 | 0.36 | 0.36 | 73 | 1009.0 |
| 20260506173004 | 17 | 144 | 1.6 | 16.1 | 0.00 | 0.36 | 0.36 | 73 | 1009.0 |
| 20260506171504 | 18 | 158 | 1.6 | 17.7 | 0.00 | 0.36 | 0.36 | 71 | 1009.0 |
| 20260506170003 | 18 | 101 | 3.2 | 17.7 | 0.00 | 0.36 | 0.36 | 71 | 1009.0 |
| 20260506164506 | 18 | 109 | 3.2 | 17.7 | 0.00 | 0.36 | 0.36 | 71 | 1009.0 |
| 20260506163004 | 18 | 94 | 3.2 | 17.7 | 0.00 | 0.36 | 0.36 | 71 | 1008.9 |
| 20260506161508 | 18 | 98 | 4.8 | 22.5 | 0.00 | 0.36 | 0.36 | 70 | 1009.0 |
| 20260506160008 | 18 | 252 | 3.2 | 16.1 | 0.00 | 0.36 | 0.36 | 70 | 1008.9 |
| 20260506154503 | 18 | 111 | 6.4 | 19.3 | 0.00 | 0.36 | 0.36 | 70 | 1009.0 |
| 20260506153004 | 18 | 10 | 3.2 | 17.7 | 0.00 | 0.36 | 0.36 | 70 | 1008.9 |
| 20260506151506 | 18 | 68 | 3.2 | 17.7 | 0.00 | 0.36 | 0.36 | 71 | 1009.0 |
| 20260506150008 | 18 | 121 | 1.6 | 12.9 | 0.00 | 0.36 | 0.36 | 72 | 1008.9 |
| 20260506144515 | 18 | 121 | 6.4 | 24.1 | 0.00 | 0.36 | 0.36 | 72 | 1009.0 |